Time;durP1;ratioP1;P1;durP2;ratioP2;P2;SDS_P1;SDS_P2;PMS_P1;PMS_P2;Temp;Humidity;BMP_temperature;BMP_pressure;BME280_temperature;BME280_humidity;BME280_pressure;Samples;Min_cycle;Max_cycle;Signal;HPM_P1;HPM_P2
2023/12/19 00:01:01;;;;;;;8.73;4.70;;;4.30;99.90;;;;;;5063924;28;20799;-66
2023/12/19 00:03:26;;;;;;;6.00;3.55;;;4.30;99.90;;;;;;5072654;28;20032;-65
2023/12/19 00:05:52;;;;;;;6.60;4.00;;;4.30;99.90;;;;;;5067364;28;20120;-65
2023/12/19 00:08:18;;;;;;;8.73;4.18;;;4.30;99.90;;;;;;5074984;28;20131;-65
2023/12/19 00:10:43;;;;;;;7.13;3.97;;;4.30;99.90;;;;;;5074213;28;20063;-64
2023/12/19 00:13:09;;;;;;;7.05;3.70;;;4.30;99.90;;;;;;5070323;28;20033;-65
2023/12/19 00:15:35;;;;;;;6.65;3.78;;;4.30;99.90;;;;;;5070487;28;20071;-64
2023/12/19 00:18:01;;;;;;;6.35;3.88;;;4.30;99.90;;;;;;5066495;28;20039;-65
2023/12/19 00:20:28;;;;;;;5.20;3.40;;;4.30;99.90;;;;;;5053486;28;20032;-65
2023/12/19 00:22:54;;;;;;;6.80;3.80;;;4.20;99.90;;;;;;5058734;28;20480;-65
2023/12/19 00:25:20;;;;;;;6.28;3.95;;;4.20;99.90;;;;;;5060125;28;20083;-66
2023/12/19 00:27:45;;;;;;;7.18;3.90;;;4.30;99.90;;;;;;5060628;28;20028;-65
2023/12/19 00:30:11;;;;;;;5.45;3.42;;;4.30;99.90;;;;;;5060476;28;20025;-65
2023/12/19 00:32:37;;;;;;;6.80;3.63;;;4.30;99.90;;;;;;5052460;28;20128;-66
2023/12/19 00:35:03;;;;;;;5.32;3.70;;;4.30;99.90;;;;;;5054662;28;20041;-65
2023/12/19 00:37:28;;;;;;;5.90;3.45;;;4.30;99.90;;;;;;5057659;28;20108;-65
2023/12/19 00:39:54;;;;;;;6.20;3.72;;;4.30;99.90;;;;;;5059125;28;20051;-64
2023/12/19 00:42:19;;;;;;;4.90;3.15;;;4.30;99.90;;;;;;5059105;28;20452;-64
2023/12/19 00:44:45;;;;;;;6.35;4.00;;;4.30;99.90;;;;;;5050411;28;20043;-64
2023/12/19 00:47:11;;;;;;;4.97;3.22;;;4.40;99.90;;;;;;5054278;28;21888;-65
2023/12/19 00:49:36;;;;;;;5.70;3.72;;;4.50;99.90;;;;;;5047449;28;20048;-66
2023/12/19 00:52:02;;;;;;;6.03;3.55;;;4.50;99.90;;;;;;5057484;28;20108;-64
2023/12/19 00:54:27;;;;;;;5.32;3.15;;;4.60;99.90;;;;;;5051345;28;20101;-65
2023/12/19 00:56:53;;;;;;;4.82;2.97;;;4.70;99.90;;;;;;5044925;28;20068;-65
2023/12/19 00:59:20;;;;;;;5.60;3.13;;;4.70;99.90;;;;;;5050904;28;20048;-64
2023/12/19 01:01:47;;;;;;;6.10;3.20;;;4.80;99.90;;;;;;5050382;28;20040;-65
2023/12/19 01:04:12;;;;;;;5.82;2.97;;;4.80;99.90;;;;;;5048837;28;20845;-65
2023/12/19 01:06:38;;;;;;;7.20;3.22;;;4.80;99.90;;;;;;5053585;28;20037;-64
2023/12/19 01:09:05;;;;;;;5.50;2.92;;;4.90;99.90;;;;;;5049474;28;20040;-64
2023/12/19 01:11:30;;;;;;;4.97;2.90;;;4.90;99.90;;;;;;5055259;28;20053;-65
2023/12/19 01:13:56;;;;;;;5.82;2.55;;;4.90;99.90;;;;;;5054862;28;20045;-64
2023/12/19 01:16:22;;;;;;;4.45;2.88;;;5.00;99.90;;;;;;5055800;28;20059;-65
2023/12/19 01:18:47;;;;;;;;;;;5.10;99.90;;;;;;5053240;28;20035;-65
2023/12/19 01:21:13;;;;;;;3.70;2.70;;;5.10;99.90;;;;;;5051114;28;19928;-66
2023/12/19 01:23:39;;;;;;;3.13;2.38;;;5.10;99.90;;;;;;5047371;28;20067;-64
2023/12/19 01:26:04;;;;;;;4.78;2.70;;;5.10;99.90;;;;;;5048675;28;20044;-64
2023/12/19 01:28:30;;;;;;;4.00;2.70;;;5.10;99.90;;;;;;5046120;28;20086;-65
2023/12/19 01:30:56;;;;;;;4.65;2.80;;;5.20;99.90;;;;;;5048875;28;20669;-65
2023/12/19 01:33:21;;;;;;;4.90;2.80;;;5.20;99.90;;;;;;5049162;28;20040;-66
2023/12/19 01:35:47;;;;;;;3.72;2.50;;;5.20;99.90;;;;;;5043966;28;20202;-66
2023/12/19 01:38:14;;;;;;;7.95;2.55;;;5.20;99.90;;;;;;5047538;28;20048;-65
2023/12/19 01:40:40;;;;;;;4.07;3.03;;;5.20;99.90;;;;;;5050112;28;20131;-66
2023/12/19 01:43:18;;;;;;;4.20;2.72;;;5.20;99.90;;;;;;5054008;28;20120;-66
2023/12/19 01:45:43;;;;;;;3.85;2.83;;;5.20;99.90;;;;;;5055366;28;20044;-64
2023/12/19 01:48:09;;;;;;;4.05;2.90;;;5.20;99.90;;;;;;5059385;28;20047;-65
2023/12/19 01:50:35;;;;;;;4.40;3.00;;;5.20;99.90;;;;;;5052901;28;20047;-64
2023/12/19 01:53:01;;;;;;;4.97;3.00;;;5.20;99.90;;;;;;5057704;28;20504;-65
2023/12/19 01:55:27;;;;;;;3.88;2.58;;;5.20;99.90;;;;;;5054218;28;20044;-65
2023/12/19 01:57:56;;;;;;;4.30;2.40;;;5.20;99.90;;;;;;5059547;28;20036;-65
2023/12/19 02:00:22;;;;;;;4.45;2.67;;;5.20;99.90;;;;;;5057787;28;20135;-64
2023/12/19 02:02:50;;;;;;;2.67;1.83;;;5.20;99.90;;;;;;5053807;28;20278;-65
2023/12/19 02:05:16;;;;;;;3.90;2.33;;;5.20;99.90;;;;;;5055161;28;20547;-65
2023/12/19 02:07:43;;;;;;;4.70;2.90;;;5.20;99.90;;;;;;5055395;28;20124;-65
2023/12/19 02:10:09;;;;;;;4.07;2.78;;;5.20;99.90;;;;;;5053501;28;20064;-65
2023/12/19 02:12:35;;;;;;;3.60;2.63;;;5.20;99.90;;;;;;5056390;28;20044;-64
2023/12/19 02:15:02;;;;;;;4.13;2.40;;;5.20;99.90;;;;;;5056434;28;20037;-65
2023/12/19 02:17:28;;;;;;;6.25;2.88;;;5.20;99.90;;;;;;5061538;28;20244;-65
2023/12/19 02:19:54;;;;;;;3.33;2.00;;;5.20;99.90;;;;;;5058711;28;20033;-64
2023/12/19 02:22:20;;;;;;;4.43;2.55;;;5.20;99.90;;;;;;5059411;28;20498;-65
2023/12/19 02:24:45;;;;;;;3.70;2.25;;;5.10;99.90;;;;;;5043335;28;20036;-66
2023/12/19 02:27:13;;;;;;;3.58;2.47;;;5.20;99.90;;;;;;5047344;28;20032;-65
2023/12/19 02:29:38;;;;;;;3.92;2.88;;;5.10;99.90;;;;;;5050976;28;20040;-64
2023/12/19 02:32:04;;;;;;;4.45;2.85;;;5.10;99.90;;;;;;5060551;28;20032;-64
2023/12/19 02:34:30;;;;;;;3.67;2.53;;;5.00;99.90;;;;;;5051914;28;20047;-65
2023/12/19 02:36:56;;;;;;;3.72;2.33;;;5.00;99.90;;;;;;5054133;28;20140;-65
2023/12/19 02:39:22;;;;;;;4.15;2.28;;;5.10;99.90;;;;;;5058045;28;20621;-65
2023/12/19 02:41:48;;;;;;;3.47;2.20;;;5.00;99.90;;;;;;5052346;28;20047;-65
2023/12/19 02:44:13;;;;;;;4.25;2.30;;;5.00;99.90;;;;;;5056053;28;20099;-65
2023/12/19 02:46:39;;;;;;;;;;;5.00;99.90;;;;;;5058788;28;20041;-64
2023/12/19 02:49:05;;;;;;;2.83;2.20;;;5.00;99.90;;;;;;5050399;28;19920;-65
2023/12/19 02:51:30;;;;;;;3.88;2.22;;;5.00;99.90;;;;;;5053948;28;20041;-64
2023/12/19 02:53:57;;;;;;;2.38;1.58;;;5.10;99.90;;;;;;5050673;28;20229;-65
2023/12/19 02:56:23;;;;;;;2.83;1.83;;;5.10;99.90;;;;;;5048549;28;20526;-65
2023/12/19 02:58:49;;;;;;;2.38;1.70;;;5.10;99.90;;;;;;5051936;28;20040;-64
2023/12/19 03:01:15;;;;;;;3.03;1.48;;;5.10;99.90;;;;;;5048384;28;20624;-64
2023/12/19 03:03:41;;;;;;;1.33;1.10;;;5.10;99.90;;;;;;5048221;28;20094;-65
2023/12/19 03:06:07;;;;;;;1.80;1.27;;;5.20;99.90;;;;;;5053246;28;20036;-65
2023/12/19 03:08:34;;;;;;;1.77;1.10;;;5.20;99.90;;;;;;5058510;28;20037;-65
2023/12/19 03:11:00;;;;;;;1.23;1.00;;;5.20;99.90;;;;;;5053125;28;20033;-64
2023/12/19 03:13:26;;;;;;;2.38;1.40;;;5.20;99.90;;;;;;5060775;28;20039;-64
2023/12/19 03:15:51;;;;;;;;;;;5.20;99.90;;;;;;5057551;28;20513;-63
2023/12/19 03:18:23;;;;;;;2.88;1.10;;;5.30;99.90;;;;;;5061699;28;20365;-65
2023/12/19 03:20:49;;;;;;;1.50;1.10;;;5.30;99.90;;;;;;5054135;28;20420;-65
2023/12/19 03:23:15;;;;;;;1.80;1.20;;;5.30;99.90;;;;;;5058323;28;20047;-64
2023/12/19 03:25:41;;;;;;;1.10;1.00;;;5.40;99.90;;;;;;5048059;28;20041;-64
2023/12/19 03:28:06;;;;;;;2.17;1.50;;;5.40;99.90;;;;;;5053438;28;20589;-63
2023/12/19 03:30:32;;;;;;;1.38;0.93;;;5.40;99.90;;;;;;5049936;28;20612;-65
2023/12/19 03:32:57;;;;;;;1.38;1.10;;;5.50;99.90;;;;;;5057221;28;20040;-64
2023/12/19 03:35:23;;;;;;;1.25;0.90;;;5.50;99.90;;;;;;5048029;28;20232;-64
2023/12/19 03:37:50;;;;;;;1.30;0.90;;;5.50;99.90;;;;;;5055857;28;20033;-63
2023/12/19 03:40:16;;;;;;;2.00;0.90;;;5.60;99.90;;;;;;5057269;28;20045;-64
2023/12/19 03:42:42;;;;;;;1.85;1.15;;;5.60;99.90;;;;;;5058421;28;20466;-64
2023/12/19 03:45:08;;;;;;;2.67;1.15;;;5.60;99.90;;;;;;5057039;28;20467;-63
2023/12/19 03:47:34;;;;;;;1.77;1.10;;;5.70;99.90;;;;;;5059394;28;20419;-65
2023/12/19 03:49:59;;;;;;;0.90;0.70;;;5.70;99.90;;;;;;5048719;28;20048;-64
2023/12/19 03:52:25;;;;;;;1.35;1.13;;;5.80;99.90;;;;;;5058863;28;20044;-65
2023/12/19 03:54:50;;;;;;;2.58;1.50;;;5.80;99.90;;;;;;5058196;28;20033;-66
2023/12/19 03:57:16;;;;;;;1.98;1.27;;;5.80;99.90;;;;;;5063323;28;20066;-64
2023/12/19 03:59:43;;;;;;;1.77;1.08;;;5.80;99.90;;;;;;5060557;28;20044;-65
2023/12/19 04:02:09;;;;;;;1.90;1.20;;;5.80;99.90;;;;;;5058009;28;20880;-65
2023/12/19 04:04:35;;;;;;;1.90;1.23;;;5.80;99.90;;;;;;5060019;28;20041;-65
2023/12/19 04:07:00;;;;;;;1.73;1.20;;;5.90;99.90;;;;;;5047210;28;20065;-65
2023/12/19 04:09:26;;;;;;;1.30;1.05;;;5.80;99.90;;;;;;5047760;28;20054;-64
2023/12/19 04:14:58;;;;;;;1.70;1.23;;;5.80;99.90;;;;;;5375635;22;20046;-65
2023/12/19 04:17:24;;;;;;;2.88;1.48;;;5.70;99.90;;;;;;4989439;28;20416;-65
2023/12/19 04:19:50;;;;;;;2.25;1.60;;;5.80;99.90;;;;;;5010521;28;20054;-64
2023/12/19 04:22:15;;;;;;;2.05;1.30;;;5.80;99.90;;;;;;5002495;28;20038;-64
2023/12/19 04:24:41;;;;;;;;;;;5.80;99.90;;;;;;5011961;28;20124;-64
2023/12/19 04:27:06;;;;;;;2.38;1.35;;;5.80;99.90;;;;;;5002177;28;19979;-64
2023/12/19 04:29:32;;;;;;;1.70;1.00;;;5.80;99.90;;;;;;4998790;28;20038;-64
2023/12/19 04:31:57;;;;;;;1.67;1.20;;;5.80;99.90;;;;;;5002127;28;20053;-64
2023/12/19 04:34:23;;;;;;;1.55;1.20;;;5.80;99.90;;;;;;4998398;28;20046;-64
2023/12/19 04:36:49;;;;;;;1.35;1.10;;;5.80;99.90;;;;;;5003405;28;20052;-63
2023/12/19 04:39:14;;;;;;;1.67;0.93;;;5.80;99.90;;;;;;4997978;28;20034;-63
2023/12/19 04:41:40;;;;;;;1.27;1.00;;;5.80;99.90;;;;;;5004511;28;20030;-63
2023/12/19 04:44:05;;;;;;;0.98;0.88;;;5.80;99.90;;;;;;4998565;28;20628;-63
2023/12/19 04:46:31;;;;;;;;;;;5.80;99.90;;;;;;5001115;28;20069;-64
2023/12/19 04:48:56;;;;;;;2.13;1.13;;;5.80;99.90;;;;;;4999660;28;19953;-63
2023/12/19 04:51:22;;;;;;;1.25;0.98;;;5.80;99.90;;;;;;5001178;28;20452;-64
2023/12/19 04:53:49;;;;;;;1.52;1.00;;;5.80;99.90;;;;;;5001010;28;20030;-64
2023/12/19 04:56:15;;;;;;;1.95;1.33;;;5.80;99.90;;;;;;4998712;28;20670;-64
2023/12/19 04:58:47;;;;;;;2.60;1.33;;;5.70;99.90;;;;;;4999301;28;20038;-64
2023/12/19 05:01:13;;;;;;;1.63;1.15;;;5.70;99.90;;;;;;5001141;28;20041;-64
2023/12/19 05:03:41;;;;;;;1.90;1.40;;;5.70;99.90;;;;;;5000610;28;20088;-63
2023/12/19 05:06:16;;;;;;;1.52;1.30;;;5.70;99.90;;;;;;5002442;28;20124;-63
2023/12/19 05:08:42;;;;;;;1.42;1.20;;;5.70;99.90;;;;;;4997468;28;20129;-64
2023/12/19 05:11:07;;;;;;;1.70;1.27;;;5.70;99.90;;;;;;5001496;28;20121;-64
2023/12/19 05:13:33;;;;;;;1.73;1.45;;;5.70;99.90;;;;;;4995975;28;20081;-63
2023/12/19 05:16:14;;;;;;;2.15;1.40;;;5.70;99.90;;;;;;5001665;28;20045;-58
2023/12/19 05:18:41;;;;;;;2.75;1.67;;;5.70;99.90;;;;;;4998523;28;20050;-60
2023/12/19 05:21:07;;;;;;;2.38;1.00;;;5.80;99.90;;;;;;5001356;28;20038;-63
2023/12/19 05:23:37;;;;;;;1.55;1.10;;;5.80;99.90;;;;;;4997530;28;20042;-67
2023/12/19 05:26:07;;;;;;;1.67;1.10;;;5.80;99.90;;;;;;4998981;28;20046;-68
2023/12/19 05:28:35;;;;;;;2.20;1.40;;;5.80;99.90;;;;;;4999494;28;20041;-64
2023/12/19 05:31:01;;;;;;;2.28;1.33;;;5.80;99.90;;;;;;5000057;28;20744;-64
2023/12/19 05:33:27;;;;;;;1.13;0.98;;;5.80;99.90;;;;;;4997649;28;20034;-65
2023/12/19 05:35:53;;;;;;;1.70;1.10;;;5.80;99.90;;;;;;5002312;28;20517;-65
2023/12/19 05:38:20;;;;;;;1.73;1.13;;;5.80;99.90;;;;;;4999915;28;20076;-66
2023/12/19 05:40:46;;;;;;;1.27;0.90;;;5.90;99.90;;;;;;5001630;28;20078;-66
2023/12/19 05:43:15;;;;;;;1.17;0.85;;;5.90;99.90;;;;;;4998749;28;20144;-64
2023/12/19 05:45:41;;;;;;;1.40;0.95;;;6.00;99.90;;;;;;5001677;28;20069;-65
2023/12/19 05:48:07;;;;;;;1.23;0.95;;;6.00;99.90;;;;;;5001063;28;20070;-65
2023/12/19 05:50:34;;;;;;;0.93;0.80;;;6.10;99.90;;;;;;4997601;28;20056;-65
2023/12/19 05:53:00;;;;;;;1.52;1.15;;;6.10;99.90;;;;;;5001484;28;20099;-65
2023/12/19 05:55:25;;;;;;;1.05;0.70;;;6.20;99.90;;;;;;4999576;28;20054;-65
2023/12/19 05:57:51;;;;;;;;;;;6.20;99.90;;;;;;4992797;28;20046;-70
2023/12/19 06:00:17;;;;;;;1.50;0.90;;;6.30;99.90;;;;;;4991232;28;19925;-66
2023/12/19 06:02:48;;;;;;;3.00;1.20;;;6.20;99.90;;;;;;4991439;28;20053;-66
2023/12/19 06:05:14;;;;;;;1.45;1.15;;;6.20;99.90;;;;;;4990532;28;20079;-66
2023/12/19 06:07:43;;;;;;;1.60;1.10;;;6.20;99.90;;;;;;4993447;28;20041;-66
2023/12/19 06:10:13;;;;;;;1.73;1.20;;;6.20;99.90;;;;;;4996152;28;20046;-64
2023/12/19 06:12:40;;;;;;;1.15;0.93;;;6.20;99.90;;;;;;4997691;28;20191;-65
2023/12/19 06:15:12;;;;;;;1.33;1.00;;;6.20;99.90;;;;;;4993284;28;20755;-66
2023/12/19 06:17:42;;;;;;;1.10;0.90;;;6.30;99.90;;;;;;4997401;28;20502;-66
2023/12/19 06:20:10;;;;;;;1.55;0.88;;;6.30;99.90;;;;;;4992557;28;20045;-65
2023/12/19 06:22:36;;;;;;;1.77;0.88;;;6.20;99.90;;;;;;4997511;28;20038;-66
2023/12/19 06:25:02;;;;;;;2.08;1.38;;;6.30;99.90;;;;;;4991790;28;20057;-66
2023/12/19 06:27:28;;;;;;;1.58;1.00;;;6.30;99.90;;;;;;4998885;28;20069;-65
2023/12/19 06:29:54;;;;;;;1.05;0.73;;;6.30;99.90;;;;;;4998540;28;20130;-65
2023/12/19 06:32:20;;;;;;;1.83;0.95;;;6.30;99.90;;;;;;4995968;28;20503;-65
2023/12/19 06:34:46;;;;;;;1.35;0.90;;;6.30;99.90;;;;;;4997880;28;20125;-64
2023/12/19 06:37:11;;;;;;;1.05;0.70;;;6.40;99.90;;;;;;4998258;28;20053;-64
2023/12/19 06:39:37;;;;;;;1.20;0.75;;;6.40;99.90;;;;;;4996471;28;20070;-65
2023/12/19 06:42:03;;;;;;;1.50;0.98;;;6.40;99.90;;;;;;4997500;28;20037;-65
2023/12/19 06:44:29;;;;;;;1.48;1.10;;;6.40;99.90;;;;;;4996161;28;20065;-65
2023/12/19 06:46:54;;;;;;;;;;;6.50;99.90;;;;;;4998996;28;20116;-65
2023/12/19 06:49:21;;;;;;;1.58;0.80;;;6.50;99.90;;;;;;4995306;28;20000;-63
2023/12/19 06:51:47;;;;;;;3.55;0.90;;;6.50;99.90;;;;;;4993243;28;20476;-63
2023/12/19 06:54:13;;;;;;;1.92;1.20;;;6.60;99.90;;;;;;4992665;28;20505;-64
2023/12/19 06:56:39;;;;;;;1.25;0.90;;;6.60;99.90;;;;;;4995645;28;20068;-65
2023/12/19 06:59:08;;;;;;;1.20;0.70;;;6.60;99.90;;;;;;4993282;28;20080;-64
2023/12/19 07:01:34;;;;;;;1.40;0.90;;;6.60;99.90;;;;;;4991238;28;20129;-66
2023/12/19 07:03:59;;;;;;;2.03;1.10;;;6.70;99.90;;;;;;4994273;28;20117;-65
2023/12/19 07:06:25;;;;;;;1.20;0.80;;;6.70;99.90;;;;;;4995349;28;20886;-66
2023/12/19 07:08:51;;;;;;;;;;;6.80;99.90;;;;;;4995415;28;20045;-64
2023/12/19 07:11:17;;;;;;;0.80;0.60;;;6.80;99.90;;;;;;4999700;28;20028;-66
2023/12/19 07:13:43;;;;;;;2.40;0.70;;;6.80;99.90;;;;;;4996856;28;20125;-65
2023/12/19 07:16:14;;;;;;;3.00;0.75;;;6.90;99.90;;;;;;5002862;28;20116;-66
2023/12/19 07:18:40;;;;;;;2.30;0.50;;;6.90;99.90;;;;;;4997694;28;20100;-65
2023/12/19 07:21:06;;;;;;;1.13;0.63;;;6.90;99.90;;;;;;5000688;28;20050;-65
2023/12/19 07:23:32;;;;;;;2.05;0.73;;;7.00;99.90;;;;;;4999067;28;20052;-65
2023/12/19 07:25:57;;;;;;;2.28;0.80;;;7.00;99.90;;;;;;5000641;28;20037;-64
2023/12/19 07:28:23;;;;;;;0.88;0.52;;;7.00;99.90;;;;;;5003452;28;20169;-64
2023/12/19 07:30:49;;;;;;;2.55;0.70;;;7.00;99.90;;;;;;5017950;28;20117;-65
2023/12/19 07:33:15;;;;;;;;;;;7.00;99.90;;;;;;5005900;28;20038;-65
2023/12/19 07:35:41;;;;;;;1.07;0.83;;;7.00;99.90;;;;;;5001682;28;19921;-65
2023/12/19 07:38:06;;;;;;;;;;;7.00;99.90;;;;;;5007391;28;20048;-65
2023/12/19 07:40:32;;;;;;;0.90;0.50;;;7.00;99.90;;;;;;5000115;28;20506;-66
2023/12/19 07:42:57;;;;;;;2.55;1.02;;;7.10;99.90;;;;;;5007775;28;20160;-65
2023/12/19 07:45:23;;;;;;;0.50;0.50;;;7.10;99.90;;;;;;5006356;28;20045;-65
2023/12/19 07:47:48;;;;;;;;;;;7.10;99.90;;;;;;5007603;28;20622;-65
2023/12/19 07:50:14;;;;;;;2.90;0.60;;;7.10;99.90;;;;;;5000750;28;20007;-65
2023/12/19 07:52:40;;;;;;;1.70;0.68;;;7.20;99.90;;;;;;5002969;28;20039;-65
2023/12/19 07:55:09;;;;;;;;;;;7.20;99.90;;;;;;5004881;28;20026;-65
2023/12/19 07:57:37;;;;;;;2.63;0.70;;;7.20;99.90;;;;;;5001245;28;19971;-65
2023/12/19 08:00:03;;;;;;;1.73;0.85;;;7.30;99.90;;;;;;5006413;28;20048;-65
2023/12/19 08:02:29;;;;;;;3.33;1.10;;;7.30;99.90;;;;;;5004158;28;20060;-65
2023/12/19 08:04:54;;;;;;;4.40;1.55;;;7.30;99.90;;;;;;5004878;28;20042;-65
2023/12/19 08:07:20;;;;;;;;;;;7.30;99.90;;;;;;5007186;28;20593;-65
2023/12/19 08:09:45;;;;;;;2.55;1.05;;;7.20;99.90;;;;;;5006745;28;19929;-65
2023/12/19 08:12:11;;;;;;;0.90;0.70;;;7.20;99.90;;;;;;5006289;28;20448;-64
2023/12/19 08:14:37;;;;;;;;;;;7.20;99.90;;;;;;5006182;28;20040;-64
2023/12/19 08:17:02;;;;;;;1.25;0.70;;;7.20;99.90;;;;;;5006334;28;19933;-65
2023/12/19 08:19:28;;;;;;;;;;;7.20;99.90;;;;;;5007145;28;20077;-65
2023/12/19 08:21:54;;;;;;;2.00;0.98;;;7.10;99.90;;;;;;5006393;28;19924;-66
2023/12/19 08:24:21;;;;;;;1.67;0.70;;;7.10;99.90;;;;;;4987611;28;20136;-65
2023/12/19 08:26:50;;;;;;;1.60;0.90;;;7.10;99.90;;;;;;5006950;28;20044;-64
2023/12/19 08:29:17;;;;;;;1.70;1.10;;;7.00;99.90;;;;;;5005339;28;20041;-64
2023/12/19 08:31:46;;;;;;;1.52;1.00;;;7.00;99.90;;;;;;5006330;28;20048;-65
2023/12/19 08:34:11;;;;;;;0.60;0.60;;;7.00;99.90;;;;;;5005770;28;20490;-65
2023/12/19 08:36:37;;;;;;;1.38;0.93;;;7.00;99.90;;;;;;5007113;28;20070;-64
2023/12/19 08:39:04;;;;;;;;;;;7.10;99.90;;;;;;5006005;28;20040;-65
2023/12/19 08:41:29;;;;;;;1.60;0.75;;;7.10;99.90;;;;;;5006367;28;19925;-65
2023/12/19 08:43:55;;;;;;;2.13;0.80;;;7.00;99.90;;;;;;5005310;28;20038;-66
2023/12/19 08:46:20;;;;;;;0.85;0.60;;;7.00;99.90;;;;;;5005832;28;20157;-66
2023/12/19 08:48:52;;;;;;;;;;;7.10;99.90;;;;;;5020525;28;20850;-65
2023/12/19 08:51:17;;;;;;;1.65;0.55;;;7.10;99.90;;;;;;5005514;28;19948;-65
2023/12/19 08:53:43;;;;;;;2.35;0.47;;;7.10;99.90;;;;;;5003874;28;20069;-66
2023/12/19 08:56:09;;;;;;;;;;;7.10;99.90;;;;;;5006837;28;20041;-66
2023/12/19 08:58:34;;;;;;;3.72;0.57;;;7.10;99.90;;;;;;5004862;28;19917;-65
2023/12/19 09:01:00;;;;;;;0.60;0.40;;;7.10;99.90;;;;;;5005585;28;20046;-66
2023/12/19 09:03:26;;;;;;;0.70;0.40;;;7.20;99.90;;;;;;5007251;28;20125;-65
2023/12/19 09:05:51;;;;;;;1.85;1.13;;;7.30;99.90;;;;;;5002519;28;20041;-65
2023/12/19 09:08:17;;;;;;;;;;;7.40;99.90;;;;;;5004418;28;20565;-65
2023/12/19 09:11:04;;;;;;;0.50;0.47;;;7.40;99.90;;;;;;4996157;22;19925;-85
2023/12/19 09:21:09;;;;;;;1.00;0.60;;;7.60;99.90;;;;;;4913878;28;20086;-84
2023/12/19 09:23:35;;;;;;;1.63;0.70;;;7.50;99.90;;;;;;4950717;28;20225;-80
2023/12/19 09:26:03;;;;;;;;;;;7.50;99.90;;;;;;4939853;28;20047;-79
2023/12/19 09:28:29;;;;;;;0.80;0.50;;;7.50;99.90;;;;;;4952551;29;20430;-80
2023/12/19 09:30:56;;;;;;;2.50;0.88;;;7.50;99.90;;;;;;4953051;29;20051;-80
2023/12/19 09:37:00;;;;;;;2.03;0.80;;;7.50;99.90;;;;;;4935779;29;20066;-80
2023/12/19 09:39:26;;;;;;;1.92;0.80;;;7.50;99.90;;;;;;4960512;29;20286;-79
2023/12/19 09:41:53;;;;;;;1.95;0.43;;;7.50;99.90;;;;;;4960677;29;20039;-80
2023/12/19 10:32:19;;;;;;;5.68;2.10;;;7.60;99.90;;;;;;4961837;29;20059;-83
2023/12/19 10:34:47;;;;;;;10.65;2.13;;;7.60;99.90;;;;;;4956818;29;20043;-80
2023/12/19 10:37:17;;;;;;;3.33;1.30;;;7.60;99.90;;;;;;4954314;29;20085;-80
2023/12/19 10:39:47;;;;;;;4.43;1.60;;;7.60;99.90;;;;;;4954861;28;20051;-81
2023/12/19 10:42:13;;;;;;;3.78;1.50;;;7.70;99.90;;;;;;4964138;28;20043;-81
2023/12/19 10:44:40;;;;;;;4.03;1.00;;;7.70;99.90;;;;;;4954287;29;20110;-81
2023/12/19 10:47:08;;;;;;;4.88;1.00;;;7.70;99.90;;;;;;4955656;28;20110;-81
2023/12/19 10:49:37;;;;;;;3.65;1.25;;;7.70;99.90;;;;;;4951923;29;20693;-80
2023/12/19 10:52:09;;;;;;;3.90;1.10;;;7.80;99.90;;;;;;4960935;28;20460;-80
2023/12/19 10:54:36;;;;;;;1.65;1.02;;;7.80;99.90;;;;;;4969982;28;20039;-81
2023/12/19 10:57:17;;;;;;;2.92;1.30;;;7.80;99.90;;;;;;4954303;29;20054;-79
2023/12/19 11:00:26;;;;;;;4.78;1.15;;;7.80;99.90;;;;;;4954745;29;20063;-80
2023/12/19 11:15:04;;;;;;;4.18;1.30;;;7.80;99.90;;;;;;4932912;29;20829;-80
2023/12/19 11:18:38;;;;;;;2.80;1.23;;;7.80;99.90;;;;;;4915107;29;20101;-80
2023/12/19 11:21:42;;;;;;;;;;;;;;;;;;;;;
2023/12/19 11:24:35;;;;;;;8.23;1.95;;;7.70;99.90;;;;;;4946439;29;20047;-79
2023/12/19 11:27:32;;;;;;;3.88;1.70;;;7.70;99.90;;;;;;4948037;29;20394;-80
2023/12/19 11:30:01;;;;;;;5.20;1.20;;;7.70;99.90;;;;;;4950134;29;20827;-79
2023/12/19 11:32:37;;;;;;;12.57;4.35;;;7.70;99.90;;;;;;4965699;28;20055;-80
2023/12/19 11:35:17;;;;;;;11.82;1.65;;;7.70;99.90;;;;;;4954252;28;20036;-78
2023/12/19 11:37:47;;;;;;;9.50;2.30;;;7.60;99.90;;;;;;4951668;29;20054;-79
2023/12/19 11:40:45;;;;;;;4.32;1.13;;;7.60;99.90;;;;;;4961422;28;20618;-78
2023/12/19 11:43:52;;;;;;;3.25;1.33;;;7.60;99.90;;;;;;4964843;28;20083;-79
2023/12/19 11:47:14;;;;;;;4.85;1.30;;;7.60;99.90;;;;;;4933477;29;20120;-78
2023/12/19 11:49:40;;;;;;;5.07;1.55;;;7.60;99.90;;;;;;4965401;28;20031;-79
2023/12/19 11:52:05;;;;;;;;;;;7.60;99.90;;;;;;4948225;29;20046;-79
2023/12/19 11:54:32;;;;;;;1.38;0.80;;;7.60;99.90;;;;;;4949421;28;19922;-79
2023/12/19 11:57:07;;;;;;;3.72;1.15;;;7.60;99.90;;;;;;4955289;28;20043;-79
2023/12/19 11:59:46;;;;;;;2.33;1.20;;;7.60;99.90;;;;;;4967173;28;20047;-80
2023/12/19 12:02:28;;;;;;;4.85;1.50;;;7.50;99.90;;;;;;4963762;28;20059;-79
2023/12/19 12:05:12;;;;;;;2.28;1.17;;;7.50;99.90;;;;;;4949411;28;20039;-79
2023/12/19 12:07:43;;;;;;;1.98;1.08;;;7.50;99.90;;;;;;4947701;29;20109;-79
2023/12/19 12:10:16;;;;;;;2.92;1.20;;;7.50;99.90;;;;;;4966169;28;20035;-79
2023/12/19 12:12:43;;;;;;;3.05;0.95;;;7.40;99.90;;;;;;4964918;28;20047;-80
2023/12/19 12:15:13;;;;;;;2.67;1.13;;;7.30;99.90;;;;;;4951064;28;20035;-80
2023/12/19 12:17:39;;;;;;;2.30;0.95;;;7.30;99.90;;;;;;4969304;28;20078;-80
2023/12/19 12:20:06;;;;;;;1.40;0.88;;;7.20;99.90;;;;;;4956266;28;20411;-80
2023/12/19 12:22:32;;;;;;;2.75;1.10;;;7.20;99.90;;;;;;4954287;29;20043;-79
2023/12/19 12:25:04;;;;;;;1.30;0.80;;;7.10;99.90;;;;;;4953181;29;20188;-79
2023/12/19 12:27:55;;;;;;;0.80;0.63;;;7.10;99.90;;;;;;4966284;28;20640;-79
2023/12/19 12:31:03;;;;;;;2.20;0.93;;;7.20;99.90;;;;;;4954502;28;20043;-80
2023/12/19 12:34:14;;;;;;;0.80;0.63;;;7.20;99.90;;;;;;4954436;28;20066;-79
2023/12/19 12:40:04;;;;;;;1.48;0.77;;;7.20;99.90;;;;;;4953558;29;20051;-80
2023/12/19 12:42:30;;;;;;;2.92;0.55;;;7.20;99.90;;;;;;4969964;28;20335;-80
2023/12/19 12:45:02;;;;;;;1.33;0.55;;;7.20;99.90;;;;;;4974784;28;20374;-80
2023/12/19 12:47:31;;;;;;;3.97;0.80;;;7.20;99.90;;;;;;4972428;28;20054;-79
2023/12/19 12:50:02;;;;;;;1.73;0.77;;;7.20;99.90;;;;;;4971656;28;20046;-80
2023/12/19 12:52:28;;;;;;;1.73;0.55;;;7.20;99.90;;;;;;4970898;28;20452;-81
2023/12/19 12:55:02;;;;;;;3.30;0.88;;;7.20;99.90;;;;;;4961047;28;20036;-79
2023/12/19 12:57:30;;;;;;;2.83;0.50;;;7.20;99.90;;;;;;4960936;28;20070;-80
2023/12/19 12:59:57;;;;;;;1.23;0.77;;;7.20;99.90;;;;;;4958889;29;20035;-79
2023/12/19 13:02:26;;;;;;;0.60;0.50;;;7.20;99.90;;;;;;4957619;28;20531;-80
2023/12/19 13:04:53;;;;;;;3.95;0.98;;;7.20;99.90;;;;;;4960152;28;20059;-80
2023/12/19 13:07:19;;;;;;;0.65;0.50;;;7.20;99.90;;;;;;4975750;28;20039;-79
2023/12/19 13:09:45;;;;;;;0.80;0.50;;;7.10;99.90;;;;;;4970875;28;20043;-79
2023/12/19 13:12:11;;;;;;;0.75;0.50;;;7.10;99.90;;;;;;4970016;28;20042;-79
2023/12/19 13:14:36;;;;;;;;;;;7.10;99.90;;;;;;4952728;29;20039;-79
2023/12/19 13:17:15;;;;;;;2.88;0.40;;;7.10;99.90;;;;;;4958305;29;19926;-79
2023/12/19 13:19:49;;;;;;;1.50;0.65;;;7.10;99.90;;;;;;4951505;28;20662;-80
2023/12/19 13:22:15;;;;;;;1.33;0.52;;;7.00;99.90;;;;;;4957444;28;20542;-80
2023/12/19 13:24:40;;;;;;;2.40;0.75;;;7.00;99.90;;;;;;4956525;28;20050;-79
2023/12/19 13:27:06;;;;;;;;;;;7.00;99.90;;;;;;4955016;28;20051;-79
2023/12/19 13:29:32;;;;;;;1.80;0.70;;;7.00;99.90;;;;;;4955470;29;19925;-79
2023/12/19 13:31:58;;;;;;;2.63;0.50;;;6.90;99.90;;;;;;4967199;28;20045;-79
2023/12/19 13:34:27;;;;;;;2.90;0.70;;;6.90;99.90;;;;;;4961003;28;20078;-79
2023/12/19 13:37:19;;;;;;;3.05;0.98;;;6.90;99.90;;;;;;4957426;28;20473;-79
2023/12/19 13:39:45;;;;;;;0.88;0.55;;;6.90;99.90;;;;;;4955646;29;20043;-79
2023/12/19 13:42:12;;;;;;;1.15;0.50;;;6.90;99.90;;;;;;4954365;29;20573;-79
2023/12/19 13:44:38;;;;;;;0.68;0.40;;;6.90;99.90;;;;;;4956601;28;20162;-79
2023/12/19 13:47:15;;;;;;;3.25;0.50;;;6.90;99.90;;;;;;4956492;28;20067;-79
2023/12/19 13:49:42;;;;;;;0.93;0.50;;;6.90;99.90;;;;;;4977373;28;20043;-79
2023/12/19 13:52:07;;;;;;;1.85;0.70;;;6.90;99.90;;;;;;4975708;28;20066;-79
2023/12/19 13:54:33;;;;;;;0.73;0.70;;;6.80;99.90;;;;;;4968971;28;20043;-79
2023/12/19 13:57:01;;;;;;;1.45;0.55;;;6.90;99.90;;;;;;4958460;28;20043;-79
2023/12/19 13:59:28;;;;;;;1.13;0.38;;;6.80;99.90;;;;;;4973210;28;20071;-80
2023/12/19 14:01:59;;;;;;;0.73;0.40;;;6.80;99.90;;;;;;4958439;28;20070;-80
2023/12/19 14:04:45;;;;;;;0.95;0.52;;;6.80;99.90;;;;;;4960204;28;20047;-79
2023/12/19 14:07:18;;;;;;;1.23;0.60;;;6.90;99.90;;;;;;4960102;29;20509;-79
2023/12/19 14:09:55;;;;;;;0.70;0.70;;;6.90;99.90;;;;;;4970604;28;20051;-79
2023/12/19 14:12:44;;;;;;;1.55;0.30;;;6.90;99.90;;;;;;4953063;29;20708;-78
2023/12/19 14:15:22;;;;;;;1.10;0.50;;;6.90;99.90;;;;;;4952161;28;20476;-79
2023/12/19 14:17:55;;;;;;;0.88;0.55;;;6.80;99.90;;;;;;4968169;28;20043;-80
2023/12/19 14:21:02;;;;;;;0.60;0.40;;;6.80;99.90;;;;;;4951463;29;20051;-79
2023/12/19 14:23:52;;;;;;;1.92;0.40;;;6.70;99.90;;;;;;4950447;29;20532;-80
2023/12/19 14:26:34;;;;;;;0.93;0.50;;;6.70;99.90;;;;;;4960108;28;20075;-78
2023/12/19 14:29:13;;;;;;;0.63;0.40;;;6.60;99.90;;;;;;4954007;29;20099;-79
2023/12/19 14:32:23;;;;;;;;;;;;;;;;;;;;;